Time;durP1;ratioP1;P1;durP2;ratioP2;P2;SDS_P1;SDS_P2;PMS_P1;PMS_P2;Temp;Humidity;BMP_temperature;BMP_pressure;BME280_temperature;BME280_humidity;BME280_pressure;Samples;Min_cycle;Max_cycle;Signal;HPM_P1;HPM_P2
2022/03/24 00:48:16;;;;;;;27.77;18.10;;;6.90;55.20;;;;;;5016876;28;20162;-56
2022/03/24 00:50:43;;;;;;;27.30;18.65;;;6.80;55.50;;;;;;5016646;28;20219;-56
2022/03/24 00:53:11;;;;;;;25.80;16.65;;;6.80;55.90;;;;;;5016931;28;20230;-56
2022/03/24 00:55:40;;;;;;;27.75;17.23;;;6.70;56.20;;;;;;5016757;28;20245;-55
2022/03/24 00:58:08;;;;;;;28.48;18.77;;;6.70;56.60;;;;;;5016875;28;20203;-56
2022/03/24 01:00:36;;;;;;;26.98;17.92;;;6.70;57.00;;;;;;5016688;28;20223;-55
2022/03/24 01:03:07;;;;;;;25.30;17.90;;;6.60;57.30;;;;;;5016476;28;20207;-56
2022/03/24 01:05:37;;;;;;;27.23;17.67;;;6.60;57.60;;;;;;5016863;28;20187;-56
2022/03/24 01:08:08;;;;;;;25.42;19.13;;;6.60;58.00;;;;;;5016542;28;20245;-55
2022/03/24 01:10:35;;;;;;;24.27;17.52;;;6.50;58.20;;;;;;5016814;28;20313;-56
2022/03/24 01:13:03;;;;;;;25.25;17.55;;;6.50;58.50;;;;;;5016506;28;20203;-56
2022/03/24 01:15:31;;;;;;;29.52;18.08;;;6.50;58.90;;;;;;5016209;28;20260;-55
2022/03/24 01:17:59;;;;;;;30.75;19.17;;;6.40;59.20;;;;;;5016231;28;20198;-55
2022/03/24 01:20:28;;;;;;;29.27;19.35;;;6.40;59.70;;;;;;5016061;28;20591;-55
2022/03/24 01:22:56;;;;;;;24.05;18.05;;;6.40;60.20;;;;;;5016175;28;20223;-55
2022/03/24 01:25:27;;;;;;;26.58;17.98;;;6.40;60.50;;;;;;5016476;28;20204;-56
2022/03/24 01:27:54;;;;;;;24.88;17.50;;;6.40;61.00;;;;;;5016582;28;20554;-57
2022/03/24 01:30:21;;;;;;;24.52;18.67;;;6.40;61.30;;;;;;5016611;28;20249;-56
2022/03/24 01:32:49;;;;;;;33.13;17.67;;;6.40;61.30;;;;;;5016728;28;20203;-56
2022/03/24 01:35:16;;;;;;;26.13;17.70;;;6.40;61.40;;;;;;5016396;28;20234;-56
2022/03/24 01:37:43;;;;;;;29.70;18.73;;;6.30;61.80;;;;;;5015284;28;20199;-55
2022/03/24 01:40:14;;;;;;;24.42;17.83;;;6.30;62.20;;;;;;5016062;28;20602;-56
2022/03/24 01:42:43;;;;;;;25.17;18.20;;;6.30;62.60;;;;;;5016392;28;20203;-56
2022/03/24 01:45:11;;;;;;;28.58;19.80;;;6.20;62.80;;;;;;5015834;28;20206;-56
2022/03/24 01:47:39;;;;;;;30.42;18.48;;;6.20;63.10;;;;;;5015681;28;20702;-56
2022/03/24 01:50:08;;;;;;;33.65;19.60;;;6.10;63.70;;;;;;5015735;28;20748;-56
2022/03/24 01:52:35;;;;;;;30.63;19.73;;;6.10;64.30;;;;;;5015882;28;20199;-55
2022/03/24 01:55:06;;;;;;;28.48;19.25;;;6.00;64.70;;;;;;5016108;28;20231;-56
2022/03/24 01:57:36;;;;;;;26.58;18.67;;;6.00;65.10;;;;;;5015538;28;20192;-55
2022/03/24 02:00:05;;;;;;;36.20;19.55;;;5.90;65.50;;;;;;5015281;28;20258;-55
2022/03/24 02:02:32;;;;;;;32.13;20.90;;;5.90;66.10;;;;;;5015385;28;20755;-55
2022/03/24 02:04:59;;;;;;;30.83;20.00;;;5.90;66.70;;;;;;5015601;28;20196;-57
2022/03/24 02:07:26;;;;;;;25.65;18.65;;;5.80;67.10;;;;;;5015295;28;20210;-55
2022/03/24 02:09:53;;;;;;;27.77;19.50;;;5.70;67.60;;;;;;5015305;28;20199;-56
2022/03/24 02:12:22;;;;;;;25.90;18.73;;;5.70;68.20;;;;;;5015292;28;20558;-56
2022/03/24 02:14:50;;;;;;;28.30;19.83;;;5.60;68.90;;;;;;5019945;28;20223;-55
2022/03/24 02:17:20;;;;;;;30.08;19.00;;;5.60;69.20;;;;;;5017936;28;20211;-55
2022/03/24 02:19:47;;;;;;;28.92;19.65;;;5.60;69.30;;;;;;5015207;28;20219;-56
2022/03/24 02:22:17;;;;;;;31.92;19.65;;;5.60;69.70;;;;;;5015025;28;20706;-55
2022/03/24 02:24:45;;;;;;;28.52;19.15;;;5.60;70.30;;;;;;5015200;28;20231;-55
2022/03/24 02:27:13;;;;;;;28.48;18.50;;;5.60;70.70;;;;;;5015147;28;20286;-56
2022/03/24 02:29:40;;;;;;;24.73;17.95;;;5.50;70.90;;;;;;5015050;28;20214;-56
2022/03/24 02:32:11;;;;;;;24.67;18.55;;;5.50;71.30;;;;;;5014998;28;20210;-55
2022/03/24 02:34:47;;;;;;;27.45;19.92;;;5.40;71.80;;;;;;5015053;28;20207;-55
2022/03/24 02:37:17;;;;;;;30.55;18.02;;;5.40;72.20;;;;;;5014653;28;20187;-55
2022/03/24 02:39:46;;;;;;;28.73;19.15;;;5.40;72.50;;;;;;5014518;28;20183;-55
2022/03/24 02:42:15;;;;;;;29.90;19.00;;;5.40;72.90;;;;;;5014876;28;20207;-56
2022/03/24 02:44:43;;;;;;;31.05;20.10;;;5.30;73.40;;;;;;5014787;28;20214;-56
2022/03/24 02:47:11;;;;;;;29.38;20.80;;;5.30;73.60;;;;;;5014650;28;20230;-56
2022/03/24 02:49:39;;;;;;;29.23;18.88;;;5.30;73.80;;;;;;5013803;28;20214;-56
2022/03/24 02:52:07;;;;;;;30.35;20.20;;;5.20;74.40;;;;;;5014791;28;20572;-55
2022/03/24 02:54:36;;;;;;;28.95;20.02;;;5.20;75.00;;;;;;5014539;28;20223;-56
2022/03/24 02:57:04;;;;;;;30.27;21.00;;;5.10;75.50;;;;;;5015456;28;20214;-56
2022/03/24 02:59:32;;;;;;;25.33;18.65;;;5.10;75.80;;;;;;5014322;28;20702;-53
2022/03/24 03:02:01;;;;;;;31.00;19.83;;;5.10;76.10;;;;;;5014316;28;20227;-56
2022/03/24 03:04:29;;;;;;;30.13;20.30;;;5.00;76.40;;;;;;5014703;28;20213;-56
2022/03/24 03:06:56;;;;;;;28.08;20.50;;;5.00;76.70;;;;;;5014119;28;20687;-57
2022/03/24 03:09:23;;;;;;;30.42;19.85;;;5.00;77.10;;;;;;5014238;28;20213;-55
2022/03/24 03:11:52;;;;;;;28.77;19.25;;;4.90;77.30;;;;;;5015150;28;20285;-55
2022/03/24 03:14:21;;;;;;;35.65;20.95;;;4.90;77.70;;;;;;5019809;28;20219;-56
2022/03/24 03:16:48;;;;;;;34.58;20.85;;;4.90;78.30;;;;;;5021918;28;20303;-56
2022/03/24 03:19:17;;;;;;;34.35;20.80;;;4.90;78.30;;;;;;5019869;28;20214;-57
2022/03/24 03:21:45;;;;;;;30.50;20.05;;;4.90;78.50;;;;;;5014738;28;20233;-56
2022/03/24 03:24:13;;;;;;;38.67;21.95;;;4.90;78.50;;;;;;5014825;28;20242;-56
2022/03/24 03:26:40;;;;;;;27.95;19.20;;;4.90;78.60;;;;;;5014463;28;20210;-55
2022/03/24 03:29:09;;;;;;;32.33;19.63;;;4.90;78.70;;;;;;5014556;28;20347;-56
2022/03/24 03:31:37;;;;;;;32.60;20.20;;;4.90;79.40;;;;;;5014381;28;20230;-56
2022/03/24 03:34:04;;;;;;;31.63;20.13;;;4.80;78.90;;;;;;5014964;28;20210;-56
2022/03/24 03:36:31;;;;;;;33.92;20.23;;;4.80;79.10;;;;;;5013859;28;20217;-55
2022/03/24 03:38:59;;;;;;;28.20;19.73;;;4.80;79.40;;;;;;5015445;28;20206;-56
2022/03/24 03:41:27;;;;;;;32.05;21.83;;;4.80;79.60;;;;;;5013928;28;20230;-56
2022/03/24 03:43:55;;;;;;;33.80;20.15;;;4.70;79.60;;;;;;5014035;28;20261;-56
2022/03/24 03:46:25;;;;;;;31.73;19.92;;;4.70;80.00;;;;;;5014347;28;20306;-56
2022/03/24 03:48:52;;;;;;;34.80;20.92;;;4.60;80.30;;;;;;5013787;28;20206;-56
2022/03/24 03:51:19;;;;;;;30.65;20.23;;;4.60;80.70;;;;;;5013624;28;20226;-56
2022/03/24 03:53:46;;;;;;;25.73;18.33;;;4.60;81.10;;;;;;5013846;28;20217;-56
2022/03/24 03:56:14;;;;;;;28.95;21.35;;;4.50;81.30;;;;;;5013569;28;20222;-56
2022/03/24 03:58:41;;;;;;;25.63;17.60;;;4.50;81.40;;;;;;5013730;28;20545;-56
2022/03/24 04:01:09;;;;;;;28.08;20.70;;;4.50;81.60;;;;;;5014013;28;20223;-56
2022/03/24 04:03:39;;;;;;;28.98;20.02;;;4.50;81.70;;;;;;5014471;28;20710;-56
2022/03/24 04:09:30;;;;;;;34.30;20.55;;;4.40;81.70;;;;;;5119796;27;20537;-56
2022/03/24 04:11:57;;;;;;;31.73;21.65;;;4.40;81.90;;;;;;5120587;28;20593;-56
2022/03/24 04:14:25;;;;;;;34.40;21.52;;;4.40;82.00;;;;;;5120271;28;20202;-56
2022/03/24 04:16:52;;;;;;;33.28;20.70;;;4.40;82.30;;;;;;5117810;28;20212;-56
2022/03/24 04:19:19;;;;;;;35.95;21.95;;;4.40;82.30;;;;;;5113317;28;20245;-56
2022/03/24 04:21:46;;;;;;;36.60;20.73;;;4.40;82.70;;;;;;5112966;28;20222;-55
2022/03/24 04:24:13;;;;;;;32.97;20.88;;;4.30;82.70;;;;;;5110950;28;20204;-56
2022/03/24 04:26:42;;;;;;;29.38;21.35;;;4.30;83.00;;;;;;5110853;28;20206;-56
2022/03/24 04:29:09;;;;;;;30.60;20.65;;;4.20;83.20;;;;;;5111252;28;20219;-55
2022/03/24 04:31:36;;;;;;;32.30;22.42;;;4.20;83.50;;;;;;5112186;28;20222;-56
2022/03/24 04:34:04;;;;;;;31.70;20.40;;;4.20;83.80;;;;;;5111212;28;20272;-57
2022/03/24 04:36:31;;;;;;;32.17;20.85;;;4.20;84.10;;;;;;5110854;28;20207;-57
2022/03/24 04:38:59;;;;;;;30.30;19.42;;;4.20;84.30;;;;;;5110998;28;20671;-56
2022/03/24 04:41:26;;;;;;;34.47;22.35;;;4.10;84.40;;;;;;5110839;28;20223;-55
2022/03/24 04:43:55;;;;;;;30.88;21.48;;;4.10;84.70;;;;;;5110283;28;20691;-55
2022/03/24 04:46:22;;;;;;;31.48;21.23;;;4.10;84.90;;;;;;5110217;28;20241;-57
2022/03/24 04:48:49;;;;;;;31.48;20.85;;;4.10;85.20;;;;;;5110672;28;20219;-55
2022/03/24 04:51:17;;;;;;;29.38;20.67;;;4.10;85.30;;;;;;5110605;28;20234;-56
2022/03/24 04:53:44;;;;;;;31.60;21.80;;;4.10;85.30;;;;;;5110708;28;20323;-56
2022/03/24 04:56:11;;;;;;;31.90;20.15;;;4.10;85.50;;;;;;5110470;28;20222;-56
2022/03/24 04:58:39;;;;;;;27.73;19.52;;;4.10;85.50;;;;;;5110773;28;20284;-55
2022/03/24 05:01:07;;;;;;;27.42;20.08;;;4.10;85.40;;;;;;5110294;28;20223;-56
2022/03/24 05:03:34;;;;;;;31.75;20.83;;;4.00;85.50;;;;;;5110668;28;20210;-56
2022/03/24 05:06:01;;;;;;;30.48;20.60;;;4.00;85.70;;;;;;5110377;28;20203;-56
2022/03/24 05:08:28;;;;;;;35.55;22.67;;;4.00;85.70;;;;;;5110025;28;20230;-55
2022/03/24 05:10:55;;;;;;;30.90;21.20;;;4.00;86.00;;;;;;5109846;28;20226;-55
2022/03/24 05:13:22;;;;;;;27.58;20.02;;;4.00;85.80;;;;;;5110834;28;20206;-56
2022/03/24 05:15:49;;;;;;;32.85;21.85;;;4.10;85.80;;;;;;5110258;28;20210;-54
2022/03/24 05:18:18;;;;;;;31.33;22.80;;;4.00;86.00;;;;;;5110182;28;20632;-56
2022/03/24 05:20:45;;;;;;;29.00;21.48;;;4.10;86.10;;;;;;5097360;28;20231;-56
2022/03/24 05:23:12;;;;;;;32.45;22.00;;;4.10;86.00;;;;;;5096325;28;20675;-57
2022/03/24 05:25:40;;;;;;;36.05;23.00;;;4.10;86.20;;;;;;5096240;28;20214;-56
2022/03/24 05:28:07;;;;;;;29.48;19.80;;;4.10;86.10;;;;;;5096631;28;20255;-56
2022/03/24 05:30:34;;;;;;;37.45;22.02;;;4.10;86.10;;;;;;5096281;28;20706;-55
2022/03/24 05:33:01;;;;;;;30.17;22.20;;;4.10;86.10;;;;;;5095835;28;20613;-56
2022/03/24 05:35:35;;;;;;;31.40;21.35;;;4.10;86.10;;;;;;5096167;28;20204;-56
2022/03/24 05:38:03;;;;;;;38.63;22.33;;;4.10;86.40;;;;;;5095828;28;20282;-54
2022/03/24 05:40:30;;;;;;;31.45;21.05;;;4.10;86.40;;;;;;5095731;28;20226;-55
2022/03/24 05:42:57;;;;;;;33.97;23.15;;;4.10;86.70;;;;;;5096096;28;20211;-56
2022/03/24 05:45:24;;;;;;;33.20;21.83;;;4.10;87.00;;;;;;5096264;28;20202;-55
2022/03/24 05:47:51;;;;;;;33.08;20.83;;;4.20;87.00;;;;;;5095588;28;20220;-56
2022/03/24 05:50:18;;;;;;;30.38;22.23;;;4.20;86.70;;;;;;5096483;28;20221;-56
2022/03/24 05:52:49;;;;;;;33.63;22.25;;;4.30;86.80;;;;;;5096110;28;20214;-55
2022/03/24 05:55:17;;;;;;;33.55;21.15;;;4.40;86.80;;;;;;5095806;28;20613;-57
2022/03/24 05:57:44;;;;;;;32.90;21.80;;;4.40;86.50;;;;;;5095571;28;20232;-56
2022/03/24 06:00:12;;;;;;;34.20;21.90;;;4.50;86.20;;;;;;5095887;28;20220;-56
2022/03/24 06:02:40;;;;;;;33.38;22.15;;;4.50;85.90;;;;;;5095707;28;20207;-56
2022/03/24 06:05:09;;;;;;;33.33;22.42;;;4.50;85.80;;;;;;5111183;28;20200;-56
2022/03/24 06:07:37;;;;;;;30.13;20.63;;;4.60;85.70;;;;;;5105184;28;20205;-56
2022/03/24 06:10:08;;;;;;;33.38;21.98;;;4.70;85.60;;;;;;5096155;28;20589;-55
2022/03/24 06:12:35;;;;;;;35.92;22.40;;;4.70;85.30;;;;;;5095579;28;20188;-56
2022/03/24 06:15:04;;;;;;;35.80;23.75;;;4.80;85.10;;;;;;5096039;28;20234;-55
2022/03/24 06:17:31;;;;;;;31.50;21.27;;;4.80;84.80;;;;;;5095618;28;20226;-56
2022/03/24 06:19:58;;;;;;;33.08;22.70;;;4.90;84.50;;;;;;5095263;28;20641;-56
2022/03/24 06:22:25;;;;;;;32.30;21.90;;;5.00;84.10;;;;;;5095434;28;20203;-56
2022/03/24 06:24:53;;;;;;;34.03;21.83;;;5.10;83.60;;;;;;5094971;28;20684;-54
2022/03/24 06:27:22;;;;;;;31.52;20.85;;;5.20;83.20;;;;;;5095394;28;20616;-54
2022/03/24 06:29:49;;;;;;;33.33;22.08;;;5.20;82.50;;;;;;5095813;28;20252;-55
2022/03/24 06:32:16;;;;;;;34.63;22.70;;;5.30;82.10;;;;;;5095053;28;20207;-54
2022/03/24 06:34:45;;;;;;;33.40;22.38;;;5.30;81.70;;;;;;5096915;28;20550;-54
2022/03/24 06:37:12;;;;;;;38.63;24.13;;;5.40;81.40;;;;;;5096720;28;20287;-55
2022/03/24 06:39:39;;;;;;;36.05;23.45;;;5.50;81.10;;;;;;5096465;28;20297;-55
2022/03/24 06:42:07;;;;;;;37.25;24.23;;;5.50;80.70;;;;;;5096262;28;20203;-55
2022/03/24 06:44:36;;;;;;;31.85;22.98;;;5.50;80.50;;;;;;5095312;28;20211;-56
2022/03/24 06:47:04;;;;;;;36.67;24.85;;;5.50;80.40;;;;;;5094919;28;20204;-56
2022/03/24 06:49:31;;;;;;;35.40;22.45;;;5.60;80.30;;;;;;5096075;28;20607;-54
2022/03/24 06:51:58;;;;;;;33.30;24.05;;;5.60;80.00;;;;;;5097674;28;20246;-55
2022/03/24 06:54:25;;;;;;;33.03;25.30;;;5.70;79.90;;;;;;5096391;28;20200;-54
2022/03/24 06:56:52;;;;;;;30.25;22.27;;;5.70;79.40;;;;;;5098015;28;20204;-53
2022/03/24 06:59:19;;;;;;;38.35;23.63;;;5.80;78.80;;;;;;5097479;28;20232;-54
2022/03/24 07:01:49;;;;;;;37.05;24.10;;;5.90;78.10;;;;;;5095232;28;20729;-55
2022/03/24 07:04:17;;;;;;;38.30;24.60;;;6.00;77.60;;;;;;5098165;28;20203;-56
2022/03/24 07:06:44;;;;;;;32.17;22.30;;;6.20;77.10;;;;;;5095928;28;20257;-56
2022/03/24 07:09:11;;;;;;;36.97;21.98;;;6.30;76.40;;;;;;5095612;28;20248;-57
2022/03/24 07:11:38;;;;;;;28.15;20.55;;;6.50;75.60;;;;;;5095171;28;20219;-56
2022/03/24 07:14:05;;;;;;;31.00;21.23;;;6.70;74.50;;;;;;5094838;28;20669;-56
2022/03/24 07:16:32;;;;;;;37.85;24.17;;;6.90;73.20;;;;;;5093844;28;20205;-57
2022/03/24 07:19:00;;;;;;;35.17;23.70;;;7.00;71.80;;;;;;5094661;28;20223;-57
2022/03/24 07:21:28;;;;;;;29.83;22.75;;;7.10;70.50;;;;;;5094282;28;20228;-57
2022/03/24 07:23:55;;;;;;;30.70;23.40;;;7.20;69.40;;;;;;5095658;28;20707;-57
2022/03/24 07:26:22;;;;;;;33.42;22.35;;;7.20;68.60;;;;;;5098270;28;20201;-56
2022/03/24 07:28:49;;;;;;;33.00;23.60;;;7.40;67.80;;;;;;5098963;28;20444;-55
2022/03/24 07:31:19;;;;;;;35.28;25.63;;;7.50;65.90;;;;;;5098367;28;20447;-56
2022/03/24 07:33:46;;;;;;;30.70;24.48;;;7.60;62.80;;;;;;5093135;28;20437;-53
2022/03/24 07:36:15;;;;;;;38.10;24.33;;;7.70;60.90;;;;;;5093814;28;20224;-55
2022/03/24 07:38:42;;;;;;;29.10;23.35;;;7.80;60.30;;;;;;5074066;28;20280;-55
2022/03/24 07:41:10;;;;;;;29.75;23.92;;;7.90;59.90;;;;;;5073505;28;20223;-54
2022/03/24 07:43:37;;;;;;;39.60;23.02;;;8.10;59.50;;;;;;5089883;28;20449;-57
2022/03/24 07:46:04;;;;;;;33.75;23.85;;;8.20;58.90;;;;;;5093855;28;20197;-56
2022/03/24 07:48:31;;;;;;;30.52;23.27;;;8.30;58.30;;;;;;5093671;28;20570;-55
2022/03/24 07:51:00;;;;;;;31.63;21.52;;;8.40;57.80;;;;;;5092899;28;20218;-57
2022/03/24 07:53:54;;;;;;;31.77;23.00;;;8.50;57.40;;;;;;5094818;28;20205;-56
2022/03/24 07:56:24;;;;;;;33.25;24.13;;;8.70;57.00;;;;;;5095487;28;20185;-56
2022/03/24 07:58:51;;;;;;;30.83;21.88;;;8.90;56.50;;;;;;5093913;28;20232;-57
2022/03/24 08:01:26;;;;;;;35.25;23.05;;;9.00;56.00;;;;;;5094163;28;20686;-57
2022/03/24 08:03:53;;;;;;;32.35;22.80;;;9.20;55.50;;;;;;5094803;28;20698;-57
2022/03/24 08:06:21;;;;;;;34.13;23.10;;;9.30;55.00;;;;;;5093615;28;20201;-55
2022/03/24 08:08:48;;;;;;;34.80;23.73;;;9.40;54.30;;;;;;5094180;28;20225;-56
2022/03/24 08:11:17;;;;;;;36.40;23.33;;;9.50;53.90;;;;;;5094922;28;20465;-58
2022/03/24 08:13:47;;;;;;;36.47;24.33;;;9.60;53.50;;;;;;5093796;28;20448;-57
2022/03/24 08:16:14;;;;;;;36.40;25.57;;;9.80;53.00;;;;;;5094556;28;20198;-57
2022/03/24 08:18:42;;;;;;;35.40;24.70;;;10.00;51.70;;;;;;5094319;28;20800;-57
2022/03/24 08:21:09;;;;;;;31.37;24.50;;;10.10;51.40;;;;;;5093169;28;20986;-56
2022/03/24 08:23:36;;;;;;;32.40;24.07;;;10.20;50.90;;;;;;5094540;28;20478;-57
2022/03/24 08:26:03;;;;;;;31.90;24.33;;;10.30;50.60;;;;;;5093122;28;20461;-56
2022/03/24 08:28:31;;;;;;;35.20;22.70;;;10.40;50.40;;;;;;5093620;28;20501;-55
2022/03/24 08:30:59;;;;;;;37.43;24.27;;;10.60;50.00;;;;;;5093699;28;20465;-57
2022/03/24 08:33:26;;;;;;;36.07;26.00;;;10.70;49.50;;;;;;5093269;28;20442;-57
2022/03/24 08:35:53;;;;;;;41.83;27.00;;;10.80;49.20;;;;;;5093714;28;20968;-57
2022/03/24 08:38:20;;;;;;;31.00;23.40;;;10.80;48.80;;;;;;5094686;28;20445;-57
2022/03/24 08:40:47;;;;;;;33.17;23.83;;;10.80;49.20;;;;;;5095688;28;20473;-56
2022/03/24 08:43:15;;;;;;;34.13;23.47;;;10.80;48.40;;;;;;5097959;28;20448;-56
2022/03/24 08:45:43;;;;;;;35.90;24.67;;;10.90;48.10;;;;;;5097626;28;20531;-56
2022/03/24 08:48:10;;;;;;;33.97;23.73;;;11.10;48.00;;;;;;5100192;28;20448;-56
2022/03/24 08:50:38;;;;;;;31.20;23.37;;;11.20;47.70;;;;;;5101239;28;20486;-57
2022/03/24 08:53:05;;;;;;;32.83;24.98;;;11.40;47.40;;;;;;5101154;28;20441;-57
2022/03/24 08:55:33;;;;;;;34.03;24.53;;;11.50;46.70;;;;;;5106358;28;20207;-58
2022/03/24 08:58:00;;;;;;;36.17;25.23;;;11.60;46.40;;;;;;5108647;28;20442;-57
2022/03/24 09:00:27;;;;;;;32.07;23.40;;;11.80;46.10;;;;;;5112386;28;20468;-57
2022/03/24 09:02:56;;;;;;;35.57;24.57;;;11.90;45.80;;;;;;5110583;28;20457;-60
2022/03/24 09:05:24;;;;;;;34.50;24.50;;;12.00;45.50;;;;;;5108052;28;20436;-58
2022/03/24 09:07:51;;;;;;;36.77;25.20;;;12.10;45.20;;;;;;5085233;28;20452;-56
2022/03/24 09:10:18;;;;;;;36.10;24.50;;;12.10;44.90;;;;;;5087295;28;20495;-55
2022/03/24 09:12:48;;;;;;;33.00;23.83;;;12.20;44.60;;;;;;5084597;28;20445;-55
2022/03/24 09:15:19;;;;;;;30.47;23.17;;;12.30;44.30;;;;;;5096243;28;20444;-57
2022/03/24 09:17:46;;;;;;;31.77;24.47;;;12.40;44.00;;;;;;5103568;28;20454;-56
2022/03/24 09:20:18;;;;;;;36.20;22.87;;;12.50;43.60;;;;;;5105425;28;20463;-56
2022/03/24 09:22:47;;;;;;;27.03;21.83;;;12.60;43.30;;;;;;5103771;28;20547;-55
2022/03/24 09:25:16;;;;;;;33.50;21.80;;;12.70;43.00;;;;;;5101006;28;20451;-54
2022/03/24 09:27:43;;;;;;;30.30;23.53;;;12.90;42.60;;;;;;5109023;28;20468;-56
2022/03/24 09:30:14;;;;;;;30.67;23.23;;;13.00;42.10;;;;;;5108720;28;20479;-57
2022/03/24 09:32:41;;;;;;;29.27;22.33;;;13.10;41.80;;;;;;5109367;28;20446;-57
2022/03/24 09:35:09;;;;;;;30.13;22.63;;;13.10;41.40;;;;;;5108868;28;20432;-56
2022/03/24 09:37:38;;;;;;;29.33;22.50;;;13.10;41.20;;;;;;5110397;28;20447;-58
2022/03/24 09:40:07;;;;;;;31.20;22.27;;;13.20;41.00;;;;;;5109171;28;20495;-56
2022/03/24 09:42:35;;;;;;;29.63;22.47;;;13.20;40.80;;;;;;5110246;28;20447;-57
2022/03/24 09:45:04;;;;;;;33.17;23.33;;;13.40;40.60;;;;;;5105359;28;20904;-56
2022/03/24 09:47:31;;;;;;;34.50;23.20;;;13.50;40.50;;;;;;5096553;28;20454;-56
2022/03/24 09:49:59;;;;;;;27.83;22.37;;;13.60;40.30;;;;;;5095839;28;20492;-57
2022/03/24 09:52:26;;;;;;;32.03;24.67;;;13.70;40.10;;;;;;5096624;28;20826;-58
2022/03/24 09:54:55;;;;;;;34.20;23.50;;;13.70;39.90;;;;;;5095911;28;20438;-57
2022/03/24 09:57:23;;;;;;;40.90;22.50;;;13.90;39.80;;;;;;5096747;28;20440;-60
2022/03/24 09:59:50;;;;;;;31.63;23.00;;;14.10;39.70;;;;;;5099319;28;20451;-55
2022/03/24 10:02:18;;;;;;;28.40;23.63;;;14.20;39.50;;;;;;5098151;28;20440;-56
2022/03/24 10:04:46;;;;;;;35.53;23.97;;;14.30;38.90;;;;;;5097855;28;20238;-56
2022/03/24 10:07:13;;;;;;;28.13;21.60;;;14.40;38.80;;;;;;5097882;28;20896;-57
2022/03/24 10:09:43;;;;;;;30.93;21.20;;;14.60;38.80;;;;;;5098096;28;20918;-57
2022/03/24 10:12:19;;;;;;;30.07;22.50;;;14.80;38.70;;;;;;5097678;28;20449;-56
2022/03/24 10:14:46;;;;;;;30.57;22.03;;;14.90;38.40;;;;;;5095756;28;20449;-57
2022/03/24 10:17:14;;;;;;;31.57;22.57;;;14.90;38.10;;;;;;5094678;28;20460;-55
2022/03/24 10:19:57;;;;;;;30.10;23.03;;;14.90;38.00;;;;;;5094165;28;20437;-56
2022/03/24 10:22:24;;;;;;;29.90;22.00;;;14.90;37.80;;;;;;5096005;28;20451;-57
2022/03/24 10:24:52;;;;;;;29.07;23.10;;;14.90;37.60;;;;;;5095258;28;20554;-57
2022/03/24 10:27:26;;;;;;;30.30;22.23;;;15.00;37.60;;;;;;5093945;28;20983;-57
2022/03/24 10:29:55;;;;;;;30.87;22.70;;;15.20;37.60;;;;;;5094738;28;20504;-57
2022/03/24 10:32:27;;;;;;;31.80;23.47;;;15.40;37.50;;;;;;5094850;28;20453;-56
2022/03/24 10:34:58;;;;;;;31.70;22.80;;;15.50;37.20;;;;;;5094511;28;20484;-57
2022/03/24 10:37:27;;;;;;;29.83;23.10;;;15.60;37.10;;;;;;5095900;28;20768;-57
2022/03/24 10:40:02;;;;;;;33.27;23.13;;;15.60;36.90;;;;;;5094666;28;20622;-56
2022/03/24 10:42:32;;;;;;;37.60;23.63;;;15.70;36.70;;;;;;5095515;28;20467;-57
2022/03/24 10:45:05;;;;;;;28.93;22.50;;;15.70;36.60;;;;;;5095617;28;20446;-56
2022/03/24 10:47:44;;;;;;;33.97;22.23;;;15.70;36.60;;;;;;5094501;28;20488;-57
2022/03/24 10:50:39;;;;;;;30.63;22.55;;;15.60;36.30;;;;;;5094311;28;20441;-56
2022/03/24 10:53:08;;;;;;;25.63;21.40;;;15.60;36.30;;;;;;5082010;28;20210;-56
2022/03/24 10:55:55;;;;;;;27.63;21.20;;;15.60;36.30;;;;;;5095983;28;20444;-57
2022/03/24 10:58:32;;;;;;;29.73;20.43;;;15.60;36.20;;;;;;5095465;28;20543;-57
2022/03/24 11:01:01;;;;;;;26.57;19.83;;;15.70;36.00;;;;;;5095090;28;20458;-57
2022/03/24 11:03:28;;;;;;;29.53;22.00;;;15.80;36.00;;;;;;5095323;28;20994;-56
2022/03/24 11:06:09;;;;;;;27.90;20.63;;;15.90;35.90;;;;;;5103696;28;20446;-57
2022/03/24 11:08:37;;;;;;;30.83;20.23;;;16.10;35.70;;;;;;5101178;28;20453;-57
2022/03/24 11:11:08;;;;;;;34.17;26.50;;;16.30;35.40;;;;;;5096356;28;20730;-58
2022/03/24 11:13:45;;;;;;;24.77;19.57;;;16.40;35.30;;;;;;5106504;28;20479;-58
2022/03/24 11:16:13;;;;;;;25.90;20.43;;;16.30;35.10;;;;;;5109412;28;20441;-57
2022/03/24 11:18:40;;;;;;;30.87;22.60;;;16.20;35.10;;;;;;5107567;28;20450;-56
2022/03/24 11:21:13;;;;;;;30.17;19.80;;;16.30;35.30;;;;;;5108930;28;20473;-56
2022/03/24 11:23:40;;;;;;;27.50;21.27;;;16.40;35.40;;;;;;5107973;28;20450;-56
2022/03/24 11:26:09;;;;;;;27.53;20.80;;;16.50;35.10;;;;;;5107989;28;20514;-57
2022/03/24 11:28:38;;;;;;;35.40;22.73;;;16.40;34.90;;;;;;5108141;28;20446;-57
2022/03/24 11:31:09;;;;;;;34.03;22.60;;;16.30;35.00;;;;;;5103405;28;20580;-56
2022/03/24 11:33:40;;;;;;;29.17;21.57;;;16.30;35.10;;;;;;5105556;28;20518;-57
2022/03/24 11:36:09;;;;;;;34.70;23.47;;;16.30;35.10;;;;;;5108460;28;20429;-57
2022/03/24 11:38:37;;;;;;;30.20;21.37;;;16.30;35.10;;;;;;5109879;28;20447;-56
2022/03/24 11:41:07;;;;;;;30.73;20.33;;;16.30;35.10;;;;;;5104366;28;20485;-57
2022/03/24 11:43:36;;;;;;;26.60;19.27;;;16.30;35.10;;;;;;5109416;28;20504;-57
2022/03/24 11:46:10;;;;;;;30.10;21.63;;;16.20;35.10;;;;;;5108608;28;20454;-57
2022/03/24 11:48:39;;;;;;;24.93;19.03;;;16.40;35.40;;;;;;5108821;28;20435;-58
2022/03/24 11:51:16;;;;;;;27.87;21.07;;;16.50;35.30;;;;;;5108912;28;20478;-56
2022/03/24 11:53:44;;;;;;;29.63;22.63;;;16.60;35.40;;;;;;5108012;28;20431;-56
2022/03/24 11:56:19;;;;;;;27.40;20.60;;;16.70;35.40;;;;;;5110880;28;20430;-57
2022/03/24 11:59:19;;;;;;;31.03;21.83;;;16.80;35.30;;;;;;5108743;28;20434;-61
2022/03/24 12:01:48;;;;;;;23.77;19.80;;;16.90;35.10;;;;;;5101372;28;20471;-57
2022/03/24 12:04:17;;;;;;;31.60;21.07;;;16.90;35.10;;;;;;5100636;28;20442;-55
2022/03/24 12:06:53;;;;;;;27.20;20.90;;;16.90;34.90;;;;;;5100556;28;20831;-58
2022/03/24 12:09:26;;;;;;;28.17;19.73;;;17.00;34.80;;;;;;5100907;28;20447;-57
2022/03/24 12:12:06;;;;;;;31.70;22.40;;;17.00;34.70;;;;;;5098444;28;20547;-55
2022/03/24 12:14:45;;;;;;;31.00;19.77;;;17.10;34.70;;;;;;5098209;28;20427;-58
2022/03/24 12:17:22;;;;;;;25.87;20.27;;;17.20;34.60;;;;;;5097564;28;20430;-57
2022/03/24 12:19:51;;;;;;;26.87;19.03;;;17.30;34.50;;;;;;5097005;28;20439;-57
2022/03/24 12:22:44;;;;;;;24.40;19.70;;;17.40;34.40;;;;;;5096439;28;20451;-57
2022/03/24 12:25:29;;;;;;;30.30;19.73;;;17.60;34.30;;;;;;5094995;28;20434;-57
2022/03/24 12:28:11;;;;;;;24.87;17.40;;;17.70;34.00;;;;;;5093197;28;20435;-58
2022/03/24 12:30:44;;;;;;;31.53;20.63;;;17.60;33.80;;;;;;5096573;28;20864;-54
2022/03/24 12:33:14;;;;;;;26.23;19.10;;;17.60;33.80;;;;;;5097829;28;20455;-57
2022/03/24 12:35:44;;;;;;;34.53;21.07;;;17.40;33.70;;;;;;5097675;28;20450;-56
2022/03/24 12:38:29;;;;;;;21.13;16.13;;;17.30;34.00;;;;;;5098008;28;20931;-56
2022/03/24 12:41:20;;;;;;;28.83;19.50;;;17.30;34.20;;;;;;5097196;28;20496;-55
2022/03/24 12:43:51;;;;;;;24.20;18.17;;;17.30;34.20;;;;;;5095498;28;20470;-54
2022/03/24 12:46:20;;;;;;;21.73;16.97;;;17.20;34.10;;;;;;5096034;28;20216;-55
2022/03/24 12:48:49;;;;;;;21.87;15.80;;;17.10;34.30;;;;;;5097263;28;20454;-56
2022/03/24 12:51:18;;;;;;;26.13;15.23;;;17.10;34.30;;;;;;5097431;28;20483;-55
2022/03/24 12:53:55;;;;;;;19.30;15.60;;;17.10;34.30;;;;;;5095682;28;20451;-56
2022/03/24 12:56:26;;;;;;;25.70;17.97;;;17.10;34.30;;;;;;5096566;28;20431;-54
2022/03/24 12:58:54;;;;;;;23.50;16.30;;;17.20;34.30;;;;;;5096623;28;20427;-56
2022/03/24 13:01:22;;;;;;;21.97;16.17;;;17.20;34.10;;;;;;5095646;28;20462;-56
2022/03/24 13:03:57;;;;;;;23.50;17.47;;;17.20;34.00;;;;;;5097130;28;20466;-56
2022/03/24 13:06:24;;;;;;;24.93;17.00;;;17.10;34.00;;;;;;5096956;28;20801;-57
2022/03/24 13:09:13;;;;;;;23.20;16.03;;;17.20;34.10;;;;;;5096783;28;20461;-56
2022/03/24 13:11:52;;;;;;;20.63;14.03;;;17.20;34.00;;;;;;5096760;28;20510;-54
2022/03/24 13:14:20;;;;;;;18.80;11.57;;;17.30;33.80;;;;;;5096651;28;20454;-56
2022/03/24 13:17:10;;;;;;;25.03;12.80;;;17.40;33.60;;;;;;5095308;28;20450;-56
2022/03/24 13:19:40;;;;;;;20.00;13.43;;;17.50;33.50;;;;;;5096148;28;20431;-55
2022/03/24 13:22:19;;;;;;;19.87;15.60;;;17.40;33.30;;;;;;5096454;28;20917;-56
2022/03/24 13:25:01;;;;;;;21.17;13.43;;;17.30;33.20;;;;;;5095526;28;20438;-55
2022/03/24 13:27:29;;;;;;;21.03;14.70;;;17.20;33.20;;;;;;5096403;28;20434;-57
2022/03/24 13:29:56;;;;;;;26.00;15.23;;;17.10;33.70;;;;;;5096161;28;20469;-56
2022/03/24 13:32:27;;;;;;;22.43;14.10;;;17.10;33.00;;;;;;5095163;28;20435;-55
2022/03/24 13:34:59;;;;;;;16.47;14.60;;;17.00;32.60;;;;;;5096256;28;20423;-54